sensor_id;sensor_type;location;lat;lon;timestamp;pressure;altitude;pressure_sealevel;temperature;humidity
31761;BME280;18335;51.486;7.562;2023-01-31T00:01:07;100921.31;;;4.16;100.00
31761;BME280;18335;51.486;7.562;2023-01-31T00:03:34;100928.47;;;4.29;100.00
31761;BME280;18335;51.486;7.562;2023-01-31T00:06:12;100921.97;;;4.19;100.00
31761;BME280;18335;51.486;7.562;2023-01-31T00:08:39;100935.41;;;4.21;100.00
31761;BME280;18335;51.486;7.562;2023-01-31T00:11:08;100922.94;;;4.31;100.00
31761;BME280;18335;51.486;7.562;2023-01-31T00:13:35;100931.91;;;4.19;100.00
31761;BME280;18335;51.486;7.562;2023-01-31T00:16:02;100940.75;;;4.33;100.00
31761;BME280;18335;51.486;7.562;2023-01-31T00:18:29;100934.09;;;4.26;100.00
31761;BME280;18335;51.486;7.562;2023-01-31T00:20:55;100933.00;;;4.29;100.00
31761;BME280;18335;51.486;7.562;2023-01-31T00:23:22;100921.00;;;4.20;100.00
31761;BME280;18335;51.486;7.562;2023-01-31T00:25:49;100912.69;;;4.11;100.00
31761;BME280;18335;51.486;7.562;2023-01-31T00:28:17;100930.41;;;4.15;100.00
31761;BME280;18335;51.486;7.562;2023-01-31T00:30:44;100931.06;;;4.06;100.00
31761;BME280;18335;51.486;7.562;2023-01-31T00:33:10;100924.91;;;3.91;100.00
31761;BME280;18335;51.486;7.562;2023-01-31T00:35:38;100930.72;;;3.98;100.00
31761;BME280;18335;51.486;7.562;2023-01-31T00:38:05;100923.47;;;3.85;100.00
31761;BME280;18335;51.486;7.562;2023-01-31T00:40:32;100934.91;;;3.76;100.00
31761;BME280;18335;51.486;7.562;2023-01-31T00:42:59;100937.50;;;3.78;100.00
31761;BME280;18335;51.486;7.562;2023-01-31T00:45:27;100930.28;;;3.78;100.00
31761;BME280;18335;51.486;7.562;2023-01-31T00:47:54;100940.31;;;3.89;100.00
31761;BME280;18335;51.486;7.562;2023-01-31T00:50:21;100934.06;;;3.76;100.00
31761;BME280;18335;51.486;7.562;2023-01-31T00:52:48;100922.75;;;3.96;100.00
31761;BME280;18335;51.486;7.562;2023-01-31T00:55:14;100920.47;;;3.90;100.00
31761;BME280;18335;51.486;7.562;2023-01-31T00:57:41;100912.47;;;3.88;100.00
31761;BME280;18335;51.486;7.562;2023-01-31T01:00:09;100916.78;;;4.04;100.00
31761;BME280;18335;51.486;7.562;2023-01-31T01:02:37;100910.31;;;4.06;100.00
31761;BME280;18335;51.486;7.562;2023-01-31T01:05:05;100901.47;;;4.04;100.00
31761;BME280;18335;51.486;7.562;2023-01-31T01:07:31;100922.81;;;3.95;100.00
31761;BME280;18335;51.486;7.562;2023-01-31T01:09:59;100916.16;;;4.00;100.00
31761;BME280;18335;51.486;7.562;2023-01-31T01:12:25;100916.47;;;3.96;100.00
31761;BME280;18335;51.486;7.562;2023-01-31T01:14:52;100916.78;;;4.04;100.00
31761;BME280;18335;51.486;7.562;2023-01-31T01:17:20;100914.09;;;4.04;100.00
31761;BME280;18335;51.486;7.562;2023-01-31T01:19:49;100917.56;;;4.06;100.00
31761;BME280;18335;51.486;7.562;2023-01-31T01:22:16;100916.56;;;4.07;100.00
31761;BME280;18335;51.486;7.562;2023-01-31T01:24:43;100914.09;;;4.16;100.00
31761;BME280;18335;51.486;7.562;2023-01-31T01:27:11;100915.47;;;4.09;100.00
31761;BME280;18335;51.486;7.562;2023-01-31T01:29:38;100915.41;;;4.11;100.00
31761;BME280;18335;51.486;7.562;2023-01-31T01:32:05;100916.78;;;4.16;100.00
31761;BME280;18335;51.486;7.562;2023-01-31T01:34:33;100915.28;;;4.12;100.00
31761;BME280;18335;51.486;7.562;2023-01-31T01:37:02;100914.19;;;4.27;100.00
31761;BME280;18335;51.486;7.562;2023-01-31T01:39:36;100907.28;;;4.23;100.00
31761;BME280;18335;51.486;7.562;2023-01-31T01:42:04;100911.81;;;4.23;100.00
31761;BME280;18335;51.486;7.562;2023-01-31T01:44:49;100912.91;;;4.20;100.00
31761;BME280;18335;51.486;7.562;2023-01-31T01:47:25;100911.47;;;4.27;100.00
31761;BME280;18335;51.486;7.562;2023-01-31T01:49:57;100916.25;;;4.24;100.00
31761;BME280;18335;51.486;7.562;2023-01-31T01:52:27;100912.69;;;4.11;100.00
31761;BME280;18335;51.486;7.562;2023-01-31T01:55:08;100908.16;;;3.99;100.00
31761;BME280;18335;51.486;7.562;2023-01-31T01:57:38;100919.81;;;3.99;100.00
31761;BME280;18335;51.486;7.562;2023-01-31T02:00:12;100916.91;;;4.02;100.00
31761;BME280;18335;51.486;7.562;2023-01-31T02:02:43;100910.19;;;3.95;100.00
31761;BME280;18335;51.486;7.562;2023-01-31T02:05:14;100920.25;;;3.93;100.00
31761;BME280;18335;51.486;7.562;2023-01-31T02:07:43;100919.28;;;3.94;100.00
31761;BME280;18335;51.486;7.562;2023-01-31T02:10:13;100915.69;;;4.06;100.00
31761;BME280;18335;51.486;7.562;2023-01-31T02:12:41;100928.00;;;3.98;100.00
31761;BME280;18335;51.486;7.562;2023-01-31T02:15:08;100913.78;;;3.96;100.00
31761;BME280;18335;51.486;7.562;2023-01-31T02:17:35;100916.16;;;3.87;100.00
31761;BME280;18335;51.486;7.562;2023-01-31T02:20:15;100927.38;;;4.07;100.00
31761;BME280;18335;51.486;7.562;2023-01-31T02:22:55;100935.69;;;3.91;100.00
31761;BME280;18335;51.486;7.562;2023-01-31T02:25:53;100928.25;;;4.07;100.00
31761;BME280;18335;51.486;7.562;2023-01-31T02:28:57;100941.00;;;4.05;100.00
31761;BME280;18335;51.486;7.562;2023-01-31T02:34:38;100948.53;;;4.13;100.00
31761;BME280;18335;51.486;7.562;2023-01-31T02:37:16;100938.41;;;4.16;100.00
31761;BME280;18335;51.486;7.562;2023-01-31T02:39:55;100945.75;;;4.14;100.00
31761;BME280;18335;51.486;7.562;2023-01-31T02:42:33;100944.66;;;4.04;100.00
31761;BME280;18335;51.486;7.562;2023-01-31T02:45:08;100938.72;;;4.24;100.00
31761;BME280;18335;51.486;7.562;2023-01-31T02:47:46;100948.34;;;4.03;100.00
31761;BME280;18335;51.486;7.562;2023-01-31T02:50:23;100948.47;;;4.14;100.00
31761;BME280;18335;51.486;7.562;2023-01-31T02:52:55;100932.47;;;4.11;100.00
31761;BME280;18335;51.486;7.562;2023-01-31T02:55:25;100941.31;;;4.13;100.00
31761;BME280;18335;51.486;7.562;2023-01-31T02:58:15;100940.78;;;4.08;100.00
31761;BME280;18335;51.486;7.562;2023-01-31T03:00:44;100932.34;;;4.13;100.00
31761;BME280;18335;51.486;7.562;2023-01-31T03:03:18;100938.19;;;4.19;100.00
31761;BME280;18335;51.486;7.562;2023-01-31T03:06:37;100938.75;;;4.12;100.00
31761;BME280;18335;51.486;7.562;2023-01-31T03:09:05;100940.47;;;4.00;100.00
31761;BME280;18335;51.486;7.562;2023-01-31T03:11:38;100945.28;;;3.95;100.00
31761;BME280;18335;51.486;7.562;2023-01-31T03:14:18;100932.38;;;4.00;100.00
31761;BME280;18335;51.486;7.562;2023-01-31T03:16:52;100936.97;;;3.98;100.00
31761;BME280;18335;51.486;7.562;2023-01-31T03:19:43;100926.31;;;3.97;100.00
31761;BME280;18335;51.486;7.562;2023-01-31T03:22:18;100922.75;;;3.96;100.00
31761;BME280;18335;51.486;7.562;2023-01-31T03:24:49;100927.38;;;3.94;100.00
31761;BME280;18335;51.486;7.562;2023-01-31T03:27:18;100916.25;;;3.86;100.00
31761;BME280;18335;51.486;7.562;2023-01-31T03:29:49;100904.47;;;3.87;100.00
31761;BME280;18335;51.486;7.562;2023-01-31T03:32:23;100911.41;;;3.91;100.00
31761;BME280;18335;51.486;7.562;2023-01-31T03:34:52;100905.78;;;3.94;100.00
31761;BME280;18335;51.486;7.562;2023-01-31T03:37:30;100896.41;;;4.00;100.00
31761;BME280;18335;51.486;7.562;2023-01-31T03:40:11;100891.31;;;3.95;100.00
31761;BME280;18335;51.486;7.562;2023-01-31T03:42:45;100888.16;;;4.01;100.00
31761;BME280;18335;51.486;7.562;2023-01-31T03:45:17;100874.56;;;4.03;100.00
31761;BME280;18335;51.486;7.562;2023-01-31T03:47:47;100875.75;;;3.99;100.00
31761;BME280;18335;51.486;7.562;2023-01-31T03:50:20;100877.16;;;4.04;100.00
31761;BME280;18335;51.486;7.562;2023-01-31T03:52:53;100865.81;;;3.99;100.00
31761;BME280;18335;51.486;7.562;2023-01-31T03:55:28;100871.66;;;4.06;100.00
31761;BME280;18335;51.486;7.562;2023-01-31T03:57:57;100862.91;;;4.15;100.00
31761;BME280;18335;51.486;7.562;2023-01-31T04:00:26;100863.97;;;4.12;100.00
31761;BME280;18335;51.486;7.562;2023-01-31T04:02:59;100868.53;;;4.12;100.00
31761;BME280;18335;51.486;7.562;2023-01-31T04:05:31;100876.63;;;4.12;100.00
31761;BME280;18335;51.486;7.562;2023-01-31T04:08:01;100860.72;;;4.20;100.00
31761;BME280;18335;51.486;7.562;2023-01-31T04:10:30;100865.69;;;4.13;100.00
31761;BME280;18335;51.486;7.562;2023-01-31T04:12:57;100855.41;;;4.18;100.00
31761;BME280;18335;51.486;7.562;2023-01-31T04:15:24;100854.91;;;4.13;100.00
31761;BME280;18335;51.486;7.562;2023-01-31T04:17:51;100843.34;;;4.11;100.00
31761;BME280;18335;51.486;7.562;2023-01-31T04:20:17;100851.75;;;4.07;100.00
31761;BME280;18335;51.486;7.562;2023-01-31T04:22:44;100852.63;;;4.07;100.00
31761;BME280;18335;51.486;7.562;2023-01-31T04:25:12;100847.66;;;4.01;100.00
31761;BME280;18335;51.486;7.562;2023-01-31T04:27:39;100855.56;;;4.04;100.00
31761;BME280;18335;51.486;7.562;2023-01-31T04:30:07;100849.72;;;4.10;100.00
31761;BME280;18335;51.486;7.562;2023-01-31T04:32:34;100851.22;;;4.14;100.00
31761;BME280;18335;51.486;7.562;2023-01-31T04:35:00;100851.00;;;4.17;100.00
31761;BME280;18335;51.486;7.562;2023-01-31T04:37:27;100855.53;;;4.17;100.00
31761;BME280;18335;51.486;7.562;2023-01-31T04:39:54;100861.03;;;4.15;100.00
31761;BME280;18335;51.486;7.562;2023-01-31T04:42:22;100852.72;;;4.18;100.00
31761;BME280;18335;51.486;7.562;2023-01-31T04:44:49;100845.06;;;4.12;100.00
31761;BME280;18335;51.486;7.562;2023-01-31T04:47:15;100843.66;;;4.19;100.00
31761;BME280;18335;51.486;7.562;2023-01-31T04:49:42;100848.91;;;4.33;100.00
31761;BME280;18335;51.486;7.562;2023-01-31T04:52:09;100832.94;;;4.30;100.00
31761;BME280;18335;51.486;7.562;2023-01-31T04:54:36;100829.94;;;4.22;100.00
31761;BME280;18335;51.486;7.562;2023-01-31T04:57:03;100829.47;;;4.28;100.00
31761;BME280;18335;51.486;7.562;2023-01-31T04:59:31;100834.59;;;4.20;100.00
31761;BME280;18335;51.486;7.562;2023-01-31T05:01:58;100818.47;;;4.19;100.00
31761;BME280;18335;51.486;7.562;2023-01-31T05:04:24;100822.72;;;4.10;100.00
31761;BME280;18335;51.486;7.562;2023-01-31T05:06:52;100813.88;;;4.08;100.00
31761;BME280;18335;51.486;7.562;2023-01-31T05:09:18;100819.28;;;4.08;100.00
31761;BME280;18335;51.486;7.562;2023-01-31T05:11:47;100826.94;;;4.02;100.00
31761;BME280;18335;51.486;7.562;2023-01-31T05:14:14;100808.16;;;4.00;100.00
31761;BME280;18335;51.486;7.562;2023-01-31T05:16:42;100824.81;;;3.94;100.00
31761;BME280;18335;51.486;7.562;2023-01-31T05:19:12;100811.31;;;3.94;100.00
31761;BME280;18335;51.486;7.562;2023-01-31T05:21:39;100810.53;;;3.92;100.00
31761;BME280;18335;51.486;7.562;2023-01-31T05:24:20;100806.44;;;3.86;100.00
31761;BME280;18335;51.486;7.562;2023-01-31T05:26:47;100793.25;;;3.95;100.00
31761;BME280;18335;51.486;7.562;2023-01-31T05:29:15;100788.28;;;3.88;100.00
31761;BME280;18335;51.486;7.562;2023-01-31T05:31:44;100795.09;;;3.94;100.00
31761;BME280;18335;51.486;7.562;2023-01-31T05:34:11;100776.00;;;3.97;100.00
31761;BME280;18335;51.486;7.562;2023-01-31T05:36:40;100784.81;;;3.99;100.00
31761;BME280;18335;51.486;7.562;2023-01-31T05:39:07;100775.75;;;4.00;100.00
31761;BME280;18335;51.486;7.562;2023-01-31T05:41:34;100771.63;;;4.07;100.00
31761;BME280;18335;51.486;7.562;2023-01-31T05:44:01;100780.25;;;4.12;100.00
31761;BME280;18335;51.486;7.562;2023-01-31T05:46:27;100788.03;;;4.17;100.00
31761;BME280;18335;51.486;7.562;2023-01-31T05:48:56;100784.16;;;4.08;100.00
31761;BME280;18335;51.486;7.562;2023-01-31T05:51:23;100776.13;;;4.19;100.00
31761;BME280;18335;51.486;7.562;2023-01-31T05:53:50;100784.97;;;4.21;100.00
31761;BME280;18335;51.486;7.562;2023-01-31T05:56:17;100780.03;;;4.15;100.00
31761;BME280;18335;51.486;7.562;2023-01-31T05:58:43;100777.66;;;4.23;100.00
31761;BME280;18335;51.486;7.562;2023-01-31T06:01:15;100781.31;;;4.22;100.00
31761;BME280;18335;51.486;7.562;2023-01-31T06:03:42;100769.19;;;4.28;100.00
31761;BME280;18335;51.486;7.562;2023-01-31T06:06:10;100775.69;;;4.25;100.00
31761;BME280;18335;51.486;7.562;2023-01-31T06:08:37;100776.53;;;4.38;100.00
31761;BME280;18335;51.486;7.562;2023-01-31T06:11:05;100766.16;;;4.32;100.00
31761;BME280;18335;51.486;7.562;2023-01-31T06:13:32;100753.84;;;4.28;100.00
31761;BME280;18335;51.486;7.562;2023-01-31T06:15:59;100756.47;;;4.30;100.00
31761;BME280;18335;51.486;7.562;2023-01-31T06:18:25;100761.44;;;4.23;100.00
31761;BME280;18335;51.486;7.562;2023-01-31T06:20:52;100728.16;;;4.23;100.00
31761;BME280;18335;51.486;7.562;2023-01-31T06:23:21;100735.06;;;4.27;100.00
31761;BME280;18335;51.486;7.562;2023-01-31T06:25:48;100745.97;;;4.25;100.00
31761;BME280;18335;51.486;7.562;2023-01-31T06:28:15;100741.53;;;4.24;100.00
31761;BME280;18335;51.486;7.562;2023-01-31T06:30:42;100743.19;;;4.27;100.00
31761;BME280;18335;51.486;7.562;2023-01-31T06:33:09;100751.88;;;4.30;100.00
31761;BME280;18335;51.486;7.562;2023-01-31T06:35:36;100760.63;;;4.34;100.00
31761;BME280;18335;51.486;7.562;2023-01-31T06:38:03;100763.78;;;4.28;100.00
31761;BME280;18335;51.486;7.562;2023-01-31T06:40:31;100760.13;;;4.29;100.00
31761;BME280;18335;51.486;7.562;2023-01-31T06:42:58;100767.19;;;4.42;100.00
31761;BME280;18335;51.486;7.562;2023-01-31T06:45:25;100753.84;;;4.28;100.00
31761;BME280;18335;51.486;7.562;2023-01-31T06:47:52;100748.91;;;4.46;100.00
31761;BME280;18335;51.486;7.562;2023-01-31T06:50:18;100750.19;;;4.29;100.00
31761;BME280;18335;51.486;7.562;2023-01-31T06:52:45;100751.44;;;4.36;100.00
31761;BME280;18335;51.486;7.562;2023-01-31T06:55:12;100738.78;;;4.37;100.00
31761;BME280;18335;51.486;7.562;2023-01-31T06:57:46;100745.13;;;4.48;100.00
31761;BME280;18335;51.486;7.562;2023-01-31T07:00:14;100747.31;;;4.43;100.00
31761;BME280;18335;51.486;7.562;2023-01-31T07:02:42;100754.44;;;4.44;100.00
31761;BME280;18335;51.486;7.562;2023-01-31T07:05:09;100769.66;;;4.45;100.00
31761;BME280;18335;51.486;7.562;2023-01-31T07:07:36;100784.28;;;4.43;100.00
31761;BME280;18335;51.486;7.562;2023-01-31T07:10:03;100781.47;;;4.44;100.00
31761;BME280;18335;51.486;7.562;2023-01-31T07:12:30;100783.38;;;4.55;100.00
31761;BME280;18335;51.486;7.562;2023-01-31T07:14:58;100776.91;;;4.45;100.00
31761;BME280;18335;51.486;7.562;2023-01-31T07:17:25;100759.63;;;4.47;100.00
31761;BME280;18335;51.486;7.562;2023-01-31T07:19:52;100765.63;;;4.51;100.00
31761;BME280;18335;51.486;7.562;2023-01-31T07:22:18;100771.75;;;4.42;100.00
31761;BME280;18335;51.486;7.562;2023-01-31T07:24:45;100765.19;;;4.57;100.00
31761;BME280;18335;51.486;7.562;2023-01-31T07:27:14;100777.09;;;4.55;100.00
31761;BME280;18335;51.486;7.562;2023-01-31T07:29:41;100773.00;;;4.49;100.00
31761;BME280;18335;51.486;7.562;2023-01-31T07:32:09;100770.44;;;4.47;100.00
31761;BME280;18335;51.486;7.562;2023-01-31T07:34:36;100773.75;;;4.51;100.00
31761;BME280;18335;51.486;7.562;2023-01-31T07:37:03;100767.06;;;4.57;100.00
31761;BME280;18335;51.486;7.562;2023-01-31T07:39:30;100757.22;;;4.56;100.00
31761;BME280;18335;51.486;7.562;2023-01-31T07:41:56;100759.56;;;4.60;100.00
31761;BME280;18335;51.486;7.562;2023-01-31T07:44:23;100755.88;;;4.61;100.00
31761;BME280;18335;51.486;7.562;2023-01-31T07:46:50;100769.16;;;4.64;100.00
31761;BME280;18335;51.486;7.562;2023-01-31T07:49:20;100752.63;;;4.69;100.00
31761;BME280;18335;51.486;7.562;2023-01-31T07:51:47;100766.88;;;4.71;100.00
31761;BME280;18335;51.486;7.562;2023-01-31T07:54:13;100765.78;;;4.73;100.00
31761;BME280;18335;51.486;7.562;2023-01-31T07:56:41;100765.81;;;4.84;100.00
31761;BME280;18335;51.486;7.562;2023-01-31T07:59:07;100762.25;;;4.84;100.00
31761;BME280;18335;51.486;7.562;2023-01-31T08:01:34;100770.44;;;4.71;100.00
31761;BME280;18335;51.486;7.562;2023-01-31T08:04:20;100762.75;;;4.78;100.00
31761;BME280;18335;51.486;7.562;2023-01-31T08:06:48;100746.00;;;4.84;100.00
31761;BME280;18335;51.486;7.562;2023-01-31T08:09:16;100760.06;;;4.89;100.00
31761;BME280;18335;51.486;7.562;2023-01-31T08:11:43;100733.72;;;4.80;100.00
31761;BME280;18335;51.486;7.562;2023-01-31T08:14:09;100732.63;;;4.82;100.00
31761;BME280;18335;51.486;7.562;2023-01-31T08:16:36;100718.97;;;4.84;100.00
31761;BME280;18335;51.486;7.562;2023-01-31T08:19:04;100729.78;;;4.84;100.00
31761;BME280;18335;51.486;7.562;2023-01-31T08:21:32;100713.97;;;4.90;100.00
31761;BME280;18335;51.486;7.562;2023-01-31T08:23:59;100721.75;;;4.95;100.00
31761;BME280;18335;51.486;7.562;2023-01-31T08:26:25;100701.59;;;4.99;100.00
31761;BME280;18335;51.486;7.562;2023-01-31T08:28:53;100710.31;;;4.91;100.00
31761;BME280;18335;51.486;7.562;2023-01-31T08:31:21;100704.88;;;4.91;100.00
31761;BME280;18335;51.486;7.562;2023-01-31T08:33:48;100691.47;;;4.90;100.00
31761;BME280;18335;51.486;7.562;2023-01-31T08:36:19;100708.22;;;4.95;100.00
31761;BME280;18335;51.486;7.562;2023-01-31T08:38:48;100696.16;;;4.99;100.00
31761;BME280;18335;51.486;7.562;2023-01-31T08:41:16;100690.41;;;5.03;100.00
31761;BME280;18335;51.486;7.562;2023-01-31T08:43:44;100693.13;;;5.03;100.00
31761;BME280;18335;51.486;7.562;2023-01-31T08:46:11;100690.28;;;5.05;100.00
31761;BME280;18335;51.486;7.562;2023-01-31T08:48:38;100684.41;;;5.11;100.00
31761;BME280;18335;51.486;7.562;2023-01-31T08:51:09;100689.56;;;5.14;100.00
31761;BME280;18335;51.486;7.562;2023-01-31T08:53:37;100701.75;;;5.20;100.00
31761;BME280;18335;51.486;7.562;2023-01-31T08:56:07;100695.84;;;5.03;100.00
31761;BME280;18335;51.486;7.562;2023-01-31T08:58:35;100694.94;;;4.92;100.00
31761;BME280;18335;51.486;7.562;2023-01-31T09:01:03;100712.03;;;4.92;100.00
31761;BME280;18335;51.486;7.562;2023-01-31T09:03:31;100701.09;;;4.94;100.00
31761;BME280;18335;51.486;7.562;2023-01-31T09:05:58;100703.25;;;4.78;100.00
31761;BME280;18335;51.486;7.562;2023-01-31T09:08:25;100704.66;;;4.60;100.00
31761;BME280;18335;51.486;7.562;2023-01-31T09:10:53;100705.91;;;4.67;100.00
31761;BME280;18335;51.486;7.562;2023-01-31T09:13:21;100708.34;;;4.59;100.00
31761;BME280;18335;51.486;7.562;2023-01-31T09:15:56;100702.94;;;4.59;100.00
31761;BME280;18335;51.486;7.562;2023-01-31T09:18:23;100701.19;;;4.58;100.00
31761;BME280;18335;51.486;7.562;2023-01-31T09:20:50;100687.50;;;4.72;100.00
31761;BME280;18335;51.486;7.562;2023-01-31T09:23:16;100679.28;;;4.73;100.00
31761;BME280;18335;51.486;7.562;2023-01-31T09:25:51;100676.56;;;4.73;100.00
31761;BME280;18335;51.486;7.562;2023-01-31T09:28:17;100669.56;;;4.71;100.00
31761;BME280;18335;51.486;7.562;2023-01-31T09:30:46;100659.75;;;4.81;100.00
31761;BME280;18335;51.486;7.562;2023-01-31T09:33:13;100655.81;;;4.74;100.00
31761;BME280;18335;51.486;7.562;2023-01-31T09:35:39;100658.28;;;4.77;100.00
31761;BME280;18335;51.486;7.562;2023-01-31T09:38:06;100662.44;;;4.81;100.00
31761;BME280;18335;51.486;7.562;2023-01-31T09:40:37;100665.66;;;4.75;100.00
31761;BME280;18335;51.486;7.562;2023-01-31T09:43:05;100658.28;;;4.77;100.00
31761;BME280;18335;51.486;7.562;2023-01-31T09:45:34;100657.00;;;4.70;100.00
31761;BME280;18335;51.486;7.562;2023-01-31T09:48:04;100659.63;;;4.71;100.00
31761;BME280;18335;51.486;7.562;2023-01-31T09:50:34;100660.59;;;4.81;100.00
31761;BME280;18335;51.486;7.562;2023-01-31T09:53:01;100661.09;;;4.75;100.00
31761;BME280;18335;51.486;7.562;2023-01-31T09:55:34;100660.59;;;4.81;100.00
31761;BME280;18335;51.486;7.562;2023-01-31T09:58:14;100657.31;;;4.78;100.00
31761;BME280;18335;51.486;7.562;2023-01-31T10:00:48;100659.72;;;4.70;100.00
31761;BME280;18335;51.486;7.562;2023-01-31T10:03:31;100658.63;;;4.72;100.00
31761;BME280;18335;51.486;7.562;2023-01-31T10:06:07;100636.56;;;4.89;100.00
31761;BME280;18335;51.486;7.562;2023-01-31T10:08:41;100638.94;;;5.16;100.00
31761;BME280;18335;51.486;7.562;2023-01-31T10:11:14;100623.94;;;5.34;100.00
31761;BME280;18335;51.486;7.562;2023-01-31T10:13:45;100630.59;;;5.19;100.00
31761;BME280;18335;51.486;7.562;2023-01-31T10:16:21;100626.88;;;5.09;100.00
31761;BME280;18335;51.486;7.562;2023-01-31T10:18:53;100627.59;;;5.11;100.00
31761;BME280;18335;51.486;7.562;2023-01-31T10:21:24;100629.47;;;5.22;100.00
31761;BME280;18335;51.486;7.562;2023-01-31T10:23:55;100618.50;;;5.01;100.00
31761;BME280;18335;51.486;7.562;2023-01-31T10:26:26;100610.06;;;5.17;100.00
31761;BME280;18335;51.486;7.562;2023-01-31T10:28:58;100594.06;;;5.14;100.00
31761;BME280;18335;51.486;7.562;2023-01-31T10:31:29;100601.91;;;5.06;100.00
31761;BME280;18335;51.486;7.562;2023-01-31T10:34:04;100608.81;;;4.98;100.00
31761;BME280;18335;51.486;7.562;2023-01-31T10:36:36;100596.75;;;5.02;100.00
31761;BME280;18335;51.486;7.562;2023-01-31T10:39:06;100602.53;;;4.98;100.00
31761;BME280;18335;51.486;7.562;2023-01-31T10:41:43;100594.78;;;5.05;100.00
31761;BME280;18335;51.486;7.562;2023-01-31T10:44:20;100590.13;;;5.07;100.00
31761;BME280;18335;51.486;7.562;2023-01-31T10:46:51;100585.69;;;5.06;100.00
31761;BME280;18335;51.486;7.562;2023-01-31T10:49:23;100571.19;;;5.18;100.00
31761;BME280;18335;51.486;7.562;2023-01-31T10:52:12;100577.56;;;5.06;100.00
31761;BME280;18335;51.486;7.562;2023-01-31T10:54:49;100578.44;;;5.06;100.00
31761;BME280;18335;51.486;7.562;2023-01-31T10:57:19;100573.00;;;5.17;100.00
31761;BME280;18335;51.486;7.562;2023-01-31T10:59:46;100568.38;;;5.19;100.00
31761;BME280;18335;51.486;7.562;2023-01-31T11:02:18;100560.34;;;5.18;100.00
31761;BME280;18335;51.486;7.562;2023-01-31T11:04:49;100548.41;;;5.20;100.00
31761;BME280;18335;51.486;7.562;2023-01-31T11:07:17;100547.31;;;5.23;100.00
31761;BME280;18335;51.486;7.562;2023-01-31T11:09:47;100538.84;;;5.16;100.00
31761;BME280;18335;51.486;7.562;2023-01-31T11:12:16;100525.91;;;5.20;100.00
31761;BME280;18335;51.486;7.562;2023-01-31T11:14:43;100545.97;;;5.06;100.00
31761;BME280;18335;51.486;7.562;2023-01-31T11:17:14;100551.16;;;5.09;100.00
31761;BME280;18335;51.486;7.562;2023-01-31T11:19:45;100539.47;;;5.09;100.00
31761;BME280;18335;51.486;7.562;2023-01-31T11:22:21;100523.59;;;5.15;100.00
31761;BME280;18335;51.486;7.562;2023-01-31T11:24:50;100524.94;;;5.21;100.00
31761;BME280;18335;51.486;7.562;2023-01-31T11:27:24;100525.78;;;5.32;100.00
31761;BME280;18335;51.486;7.562;2023-01-31T11:29:53;100514.59;;;5.26;100.00
31761;BME280;18335;51.486;7.562;2023-01-31T11:32:24;100502.69;;;5.28;100.00
31761;BME280;18335;51.486;7.562;2023-01-31T11:34:56;100491.13;;;5.37;100.00
31761;BME280;18335;51.486;7.562;2023-01-31T11:37:25;100508.31;;;5.36;100.00
31761;BME280;18335;51.486;7.562;2023-01-31T11:39:55;100505.72;;;5.46;100.00
31761;BME280;18335;51.486;7.562;2023-01-31T11:42:22;100512.94;;;5.56;100.00
31761;BME280;18335;51.486;7.562;2023-01-31T11:44:59;100497.97;;;5.52;100.00
31761;BME280;18335;51.486;7.562;2023-01-31T11:47:32;100501.91;;;5.48;100.00
31761;BME280;18335;51.486;7.562;2023-01-31T11:50:04;100489.81;;;5.64;100.00
31761;BME280;18335;51.486;7.562;2023-01-31T11:52:33;100481.19;;;5.58;100.00
31761;BME280;18335;51.486;7.562;2023-01-31T11:55:05;100488.78;;;5.65;100.00
31761;BME280;18335;51.486;7.562;2023-01-31T11:57:34;100477.00;;;5.66;100.00
31761;BME280;18335;51.486;7.562;2023-01-31T12:00:05;100477.47;;;5.71;100.00
31761;BME280;18335;51.486;7.562;2023-01-31T12:02:38;100483.91;;;5.58;100.00
31761;BME280;18335;51.486;7.562;2023-01-31T12:05:10;100497.06;;;5.63;100.00
31761;BME280;18335;51.486;7.562;2023-01-31T12:07:44;100497.94;;;5.64;100.00
31761;BME280;18335;51.486;7.562;2023-01-31T12:10:32;100490.44;;;5.56;100.00
31761;BME280;18335;51.486;7.562;2023-01-31T12:13:01;100484.13;;;5.67;100.00
31761;BME280;18335;51.486;7.562;2023-01-31T12:15:28;100474.03;;;5.69;100.00
31761;BME280;18335;51.486;7.562;2023-01-31T12:17:57;100477.47;;;5.71;100.00
31761;BME280;18335;51.486;7.562;2023-01-31T12:20:39;100465.38;;;5.86;100.00
31761;BME280;18335;51.486;7.562;2023-01-31T12:23:22;100465.31;;;5.65;100.00
31761;BME280;18335;51.486;7.562;2023-01-31T12:26:03;100466.63;;;5.71;100.00
31761;BME280;18335;51.486;7.562;2023-01-31T12:28:36;100478.00;;;5.53;100.00
31761;BME280;18335;51.486;7.562;2023-01-31T12:31:20;100467.66;;;5.58;100.00
31761;BME280;18335;51.486;7.562;2023-01-31T12:34:05;100462.84;;;5.62;100.00
31761;BME280;18335;51.486;7.562;2023-01-31T12:36:46;100448.94;;;5.67;100.00
31761;BME280;18335;51.486;7.562;2023-01-31T12:39:33;100449.19;;;5.64;100.00
31761;BME280;18335;51.486;7.562;2023-01-31T12:42:17;100441.44;;;5.70;100.00
31761;BME280;18335;51.486;7.562;2023-01-31T12:44:53;100448.81;;;5.68;100.00
31761;BME280;18335;51.486;7.562;2023-01-31T12:47:34;100446.69;;;5.72;100.00
31761;BME280;18335;51.486;7.562;2023-01-31T12:50:21;100451.50;;;5.68;100.00
31761;BME280;18335;51.486;7.562;2023-01-31T12:53:20;100441.81;;;5.66;100.00
31761;BME280;18335;51.486;7.562;2023-01-31T12:58:45;100445.56;;;5.74;100.00
31761;BME280;18335;51.486;7.562;2023-01-31T13:01:21;100435.41;;;5.67;100.00
31761;BME280;18335;51.486;7.562;2023-01-31T13:04:00;100443.19;;;5.60;100.00
31761;BME280;18335;51.486;7.562;2023-01-31T13:06:30;100446.44;;;5.75;100.00
31761;BME280;18335;51.486;7.562;2023-01-31T13:09:03;100439.25;;;5.64;100.00
31761;BME280;18335;51.486;7.562;2023-01-31T13:11:37;100433.16;;;5.72;100.00
31761;BME280;18335;51.486;7.562;2023-01-31T13:14:07;100446.97;;;5.69;100.00